createdAt,value
2019-05-03T00:02:58.765Z,99686.87
2019-05-03T00:05:47.660Z,99689.00
2019-05-03T00:08:33.791Z,99688.67
2019-05-03T00:11:21.915Z,99690.09
2019-05-03T00:14:07.821Z,99688.89
2019-05-03T00:16:54.106Z,99695.22
2019-05-03T00:19:42.079Z,99697.48
2019-05-03T00:22:28.345Z,99694.86
2019-05-03T00:25:14.700Z,99694.42
2019-05-03T00:28:01.859Z,99697.97
2019-05-03T00:30:48.255Z,99699.39
2019-05-03T00:33:36.231Z,99695.17
2019-05-03T00:36:32.827Z,99694.38
2019-05-03T00:39:27.110Z,99698.02
2019-05-03T00:42:13.091Z,99691.75
2019-05-03T00:44:59.341Z,99687.91
2019-05-03T00:47:45.364Z,99689.35
2019-05-03T00:50:32.063Z,99682.46
2019-05-03T00:53:18.040Z,99684.38
2019-05-03T00:56:04.294Z,99686.05
2019-05-03T00:58:57.046Z,99686.78
2019-05-03T01:01:43.120Z,99679.33
2019-05-03T01:04:29.214Z,99683.06
2019-05-03T01:07:15.344Z,99684.26
2019-05-03T01:10:02.696Z,99684.74
2019-05-03T01:12:49.256Z,99682.95
2019-05-03T01:15:42.575Z,99688.95
2019-05-03T01:18:28.550Z,99691.73
2019-05-03T01:21:14.573Z,99704.17
2019-05-03T01:24:01.679Z,99713.50
2019-05-03T01:26:47.763Z,99709.30
2019-05-03T01:29:33.780Z,99720.62
2019-05-03T01:32:19.906Z,99728.86
2019-05-03T01:35:06.126Z,99731.70
2019-05-03T01:37:52.176Z,99729.55
2019-05-03T01:40:38.290Z,99723.38
2019-05-03T01:43:24.559Z,99721.97
2019-05-03T01:46:12.001Z,99727.41
2019-05-03T01:49:12.287Z,99727.05
2019-05-03T01:52:10.274Z,99735.28
2019-05-03T01:54:56.130Z,99729.83
2019-05-03T01:57:42.449Z,99735.74
2019-05-03T02:00:31.789Z,99741.10
2019-05-03T02:03:27.746Z,99735.63
2019-05-03T02:06:14.363Z,99743.59
2019-05-03T02:09:01.603Z,99744.30
2019-05-03T02:11:48.005Z,99747.15
2019-05-03T02:14:34.350Z,99744.89
2019-05-03T02:17:22.555Z,99746.09
2019-05-03T02:20:08.631Z,99750.36
2019-05-03T02:22:54.960Z,99755.48
2019-05-03T02:25:41.915Z,99757.95
2019-05-03T02:28:28.426Z,99755.11
2019-05-03T02:31:14.705Z,99756.30
2019-05-03T02:34:03.261Z,99755.23
2019-05-03T02:36:49.146Z,99758.59
2019-05-03T02:39:35.250Z,99762.62
2019-05-03T02:42:21.537Z,99762.49
2019-05-03T02:45:10.570Z,99766.20
2019-05-03T02:48:06.026Z,99767.52
2019-05-03T02:50:52.545Z,99763.35
2019-05-03T02:53:38.829Z,99758.35
2019-05-03T02:56:26.048Z,99762.96
2019-05-03T02:59:15.456Z,99765.47
2019-05-03T03:02:00.178Z,99757.52
2019-05-03T03:04:46.216Z,99765.22
2019-05-03T03:07:32.427Z,99772.25
2019-05-03T03:10:18.820Z,99765.81
2019-05-03T03:13:06.068Z,99778.66
2019-05-03T03:15:55.212Z,99769.39
2019-05-03T03:18:40.816Z,99779.50
2019-05-03T03:21:30.068Z,99780.83
2019-05-03T03:24:18.984Z,99785.91
2019-05-03T03:27:06.329Z,99784.73
2019-05-03T03:30:07.948Z,99781.98
2019-05-03T03:32:57.825Z,99776.98
2019-05-03T03:35:48.433Z,99785.91
2019-05-03T03:38:35.335Z,99787.11
2019-05-03T03:41:21.186Z,99786.64
2019-05-03T03:44:07.447Z,99781.17
2019-05-03T03:46:56.201Z,99786.74
2019-05-03T03:49:42.786Z,99780.93
2019-05-03T03:52:31.650Z,99786.98
2019-05-03T03:55:17.466Z,99795.30
2019-05-03T03:58:06.489Z,99804.11
2019-05-03T04:00:52.333Z,99805.19
2019-05-03T04:03:38.741Z,99805.66
2019-05-03T04:06:39.845Z,99813.84
2019-05-03T04:09:26.919Z,99818.83
2019-05-03T04:12:12.860Z,99817.89
2019-05-03T04:15:21.545Z,99814.30
2019-05-03T04:18:26.032Z,99828.95
2019-05-03T04:21:12.516Z,99829.50
2019-05-03T04:23:58.888Z,99833.89
2019-05-03T04:26:45.407Z,99834.27
2019-05-03T04:29:31.793Z,99833.08
2019-05-03T04:32:18.225Z,99835.70
2019-05-03T04:35:05.359Z,99851.55
2019-05-03T04:37:51.965Z,99848.34
2019-05-03T04:40:38.159Z,99856.20
2019-05-03T04:43:26.395Z,99862.88
2019-05-03T04:46:19.825Z,99864.87
2019-05-03T04:49:05.912Z,99864.63
2019-05-03T04:51:51.958Z,99867.86
2019-05-03T04:55:06.343Z,99871.19
2019-05-03T04:57:51.578Z,99874.97
2019-05-03T05:00:37.625Z,99872.72
2019-05-03T05:03:23.797Z,99878.78
2019-05-03T05:06:10.652Z,99877.32
2019-05-03T05:08:56.834Z,99879.14
2019-05-03T05:11:45.557Z,99877.23
2019-05-03T05:14:31.191Z,99877.58
2019-05-03T05:17:26.362Z,99865.48
2019-05-03T05:20:24.811Z,99869.17
2019-05-03T05:23:11.085Z,99863.55
2019-05-03T05:26:05.555Z,99858.47
2019-05-03T05:28:55.699Z,99851.47
2019-05-03T05:31:41.930Z,99874.80
2019-05-03T05:34:28.231Z,99879.70
2019-05-03T05:37:14.596Z,99867.25
2019-05-03T05:40:00.985Z,99874.09
2019-05-03T05:42:47.105Z,99873.08
2019-05-03T05:45:34.822Z,99868.81
2019-05-03T05:48:30.523Z,99871.58
2019-05-03T05:51:16.782Z,99863.23
2019-05-03T05:54:05.115Z,99856.61
2019-05-03T05:57:05.159Z,99881.64
2019-05-03T05:59:56.945Z,99874.21
2019-05-03T06:02:44.724Z,99884.41
2019-05-03T06:05:30.972Z,99877.91
2019-05-03T06:08:35.334Z,99870.67
2019-05-03T06:11:45.065Z,99867.53
2019-05-03T06:14:40.348Z,99859.02
2019-05-03T06:17:34.844Z,99874.25
2019-05-03T06:20:31.016Z,99864.47
2019-05-03T06:23:24.975Z,99864.56
2019-05-03T06:26:29.603Z,99864.50
2019-05-03T06:29:16.017Z,99872.31
2019-05-03T06:32:21.456Z,99876.15
2019-05-03T06:35:07.938Z,99864.84
2019-05-03T06:37:54.659Z,99869.30
2019-05-03T06:40:41.355Z,99882.31
2019-05-03T06:43:27.478Z,99889.72
2019-05-03T06:46:16.434Z,99889.97
2019-05-03T06:49:08.602Z,99907.66
2019-05-03T06:51:50.286Z,99902.95
2019-05-03T06:54:37.905Z,99922.30
2019-05-03T06:57:25.352Z,99935.20
2019-05-03T07:00:31.875Z,99927.74
2019-05-03T07:03:37.240Z,99925.14
2019-05-03T07:06:45.935Z,99894.49
2019-05-03T07:09:57.675Z,99882.06
2019-05-03T07:13:00.824Z,99866.41
2019-05-03T07:15:47.116Z,99857.84
2019-05-03T07:18:34.991Z,99870.03
2019-05-03T07:21:21.436Z,99865.25
2019-05-03T07:24:07.684Z,99868.86
2019-05-03T07:26:55.083Z,99888.34
2019-05-03T07:29:41.900Z,99890.31
2019-05-03T07:32:31.319Z,99913.11
2019-05-03T07:35:16.886Z,99913.62
2019-05-03T07:38:05.342Z,99897.36
2019-05-03T07:40:51.904Z,99875.48
2019-05-03T07:43:38.323Z,99865.23
2019-05-03T07:46:24.705Z,99870.84
2019-05-03T07:49:11.356Z,99870.48
2019-05-03T07:51:57.455Z,99861.19
2019-05-03T07:54:45.174Z,99878.41
2019-05-03T07:57:40.857Z,99885.88
2019-05-03T08:00:27.195Z,99889.55
2019-05-03T08:03:15.308Z,99911.02
2019-05-03T08:06:01.463Z,99908.16
2019-05-03T08:08:47.503Z,99919.41
2019-05-03T08:11:35.210Z,99910.89
2019-05-03T08:14:21.776Z,99897.16
2019-05-03T08:17:07.883Z,99890.02
2019-05-03T08:19:55.150Z,99867.03
2019-05-03T08:22:41.623Z,99862.00
2019-05-03T08:25:27.643Z,99844.22
2019-05-03T08:28:14.649Z,99850.78
2019-05-03T08:31:20.557Z,99862.92
2019-05-03T08:34:38.249Z,99857.05
2019-05-03T08:37:28.059Z,99869.03
2019-05-03T08:40:15.565Z,99883.49
2019-05-03T08:43:01.924Z,99903.27
2019-05-03T08:45:48.136Z,99908.35
2019-05-03T08:48:35.503Z,99908.06
2019-05-03T08:51:21.855Z,99895.83
2019-05-03T08:54:08.035Z,99903.27
2019-05-03T08:56:55.709Z,99901.45
2019-05-03T08:59:44.504Z,99865.72
2019-05-03T09:02:30.555Z,99854.22
2019-05-03T09:05:18.613Z,99860.75
2019-05-03T09:08:05.767Z,99854.76
2019-05-03T09:11:06.916Z,99872.17
2019-05-03T09:13:58.615Z,99882.22
2019-05-03T09:16:44.895Z,99894.50
2019-05-03T09:19:31.596Z,99886.80
2019-05-03T09:22:17.495Z,99880.91
2019-05-03T09:25:04.958Z,99865.45
2019-05-03T09:27:51.557Z,99866.02
2019-05-03T09:30:37.875Z,99864.25
2019-05-03T09:33:24.949Z,99869.08
2019-05-03T09:36:11.938Z,99870.03
2019-05-03T09:38:57.938Z,99878.13
2019-05-03T09:41:45.039Z,99868.06
2019-05-03T09:44:31.496Z,99868.89
2019-05-03T09:47:17.535Z,99888.73
2019-05-03T09:50:04.778Z,99898.80
2019-05-03T09:52:51.677Z,99902.23
2019-05-03T09:55:40.036Z,99891.26
2019-05-03T09:58:26.514Z,99896.97
2019-05-03T10:01:15.852Z,99895.66
2019-05-03T10:04:02.616Z,99889.78
2019-05-03T10:06:48.902Z,99887.75
2019-05-03T10:09:35.491Z,99890.66
2019-05-03T10:12:25.488Z,99894.06
2019-05-03T10:15:12.080Z,99895.88
2019-05-03T10:17:59.883Z,99896.80
2019-05-03T10:20:46.323Z,99894.48
2019-05-03T10:23:41.416Z,99894.20
2019-05-03T10:26:27.735Z,99886.56
2019-05-03T10:29:15.267Z,99877.63
2019-05-03T10:32:07.656Z,99873.92
2019-05-03T10:34:55.681Z,99847.84
2019-05-03T10:37:42.016Z,99859.38
2019-05-03T10:40:28.282Z,99848.44
2019-05-03T10:43:14.335Z,99842.98
2019-05-03T10:46:00.622Z,99841.07
2019-05-03T10:48:47.286Z,99864.47
2019-05-03T10:51:38.255Z,99865.98
2019-05-03T10:54:24.417Z,99852.72
2019-05-03T10:57:15.972Z,99829.45
2019-05-03T11:00:04.956Z,99816.05
2019-05-03T11:02:58.917Z,99806.31
2019-05-03T11:05:45.557Z,99817.83
2019-05-03T11:08:31.555Z,99816.86
2019-05-03T11:11:17.675Z,99813.67
2019-05-03T11:14:05.390Z,99820.99
2019-05-03T11:16:52.097Z,99827.23
2019-05-03T11:19:38.238Z,99827.59
2019-05-03T11:22:25.213Z,99826.03
2019-05-03T11:25:11.615Z,99831.13
2019-05-03T11:27:58.737Z,99832.00
2019-05-03T11:30:53.154Z,99826.03
2019-05-03T11:33:39.025Z,99808.04
2019-05-03T11:36:36.615Z,99812.32
2019-05-03T11:39:22.675Z,99812.86
2019-05-03T11:42:08.855Z,99833.37
2019-05-03T11:44:54.917Z,99846.73
2019-05-03T11:47:41.335Z,99851.01
2019-05-03T11:50:27.763Z,99849.37
2019-05-03T11:53:14.562Z,99838.10
2019-05-03T11:56:01.095Z,99829.45
2019-05-03T11:58:47.177Z,99826.53
2019-05-03T12:01:42.103Z,99808.95
2019-05-03T12:04:28.276Z,99806.00
2019-05-03T12:07:18.509Z,99810.56
2019-05-03T12:10:16.873Z,99809.90
2019-05-03T12:12:59.956Z,99816.67
2019-05-03T12:15:46.216Z,99814.17
2019-05-03T12:18:47.780Z,99832.73
2019-05-03T12:21:21.933Z,99834.91
2019-05-03T12:24:09.774Z,99838.20
2019-05-03T12:26:56.115Z,99841.83
2019-05-03T12:29:42.255Z,99831.28
2019-05-03T12:32:28.515Z,99827.98
2019-05-03T12:35:15.362Z,99815.89
2019-05-03T12:38:01.996Z,99807.52
2019-05-03T12:40:48.177Z,99800.89
2019-05-03T12:43:34.436Z,99807.24
2019-05-03T12:46:20.655Z,99801.32
2019-05-03T12:49:07.058Z,99799.02
2019-05-03T12:51:53.255Z,99794.89
2019-05-03T12:54:39.435Z,99800.66
2019-05-03T12:57:25.515Z,99795.85
2019-05-03T13:00:40.098Z,99795.81
2019-05-03T13:03:35.595Z,99789.03
2019-05-03T13:06:22.099Z,99791.51
2019-05-03T13:09:08.776Z,99780.94
2019-05-03T13:11:59.154Z,99783.34
2019-05-03T13:14:45.417Z,99758.33
2019-05-03T13:17:35.695Z,99754.11
2019-05-03T13:20:22.323Z,99758.17
2019-05-03T13:23:08.555Z,99760.17
2019-05-03T13:25:54.803Z,99756.77
2019-05-03T13:28:41.284Z,99756.13
2019-05-03T13:31:27.524Z,99762.72
2019-05-03T13:34:15.568Z,99756.08
2019-05-03T13:37:01.786Z,99759.31
2019-05-03T13:39:47.916Z,99750.80
2019-05-03T13:42:35.014Z,99746.78
2019-05-03T13:45:21.700Z,99742.25
2019-05-03T13:48:07.781Z,99729.38
2019-05-03T13:50:55.181Z,99721.11
2019-05-03T13:53:41.980Z,99728.16
2019-05-03T13:56:28.200Z,99729.55
2019-05-03T13:59:21.385Z,99728.45
2019-05-03T14:02:14.476Z,99730.09
2019-05-03T14:04:52.869Z,99714.75
2019-05-03T14:07:38.970Z,99716.99
2019-05-03T14:10:25.320Z,99716.34
2019-05-03T14:13:11.370Z,99714.25
2019-05-03T14:15:57.581Z,99708.03
2019-05-03T14:18:46.458Z,99703.31
2019-05-03T14:21:43.403Z,99705.95
2019-05-03T14:24:29.577Z,99702.42
2019-05-03T14:27:17.189Z,99698.23
2019-05-03T14:30:05.435Z,99702.10
2019-05-03T14:32:52.698Z,99699.89
2019-05-03T14:35:39.200Z,99700.17
2019-05-03T14:38:25.568Z,99693.25
2019-05-03T14:41:11.826Z,99704.83
2019-05-03T14:44:00.667Z,99705.79
2019-05-03T14:46:46.890Z,99702.56
2019-05-03T14:49:34.585Z,99697.83
2019-05-03T14:52:20.686Z,99698.70
2019-05-03T14:55:14.737Z,99696.24
2019-05-03T14:58:14.767Z,99699.28
2019-05-03T15:01:08.212Z,99702.28
2019-05-03T15:03:55.052Z,99692.14
2019-05-03T15:06:41.503Z,99693.61
2019-05-03T15:09:27.457Z,99690.87
2019-05-03T15:12:13.417Z,99699.41
2019-05-03T15:14:59.661Z,99689.73
2019-05-03T15:17:45.923Z,99688.13
2019-05-03T15:20:31.976Z,99689.47
2019-05-03T15:23:18.081Z,99683.14
2019-05-03T15:26:05.132Z,99694.17
2019-05-03T15:28:51.211Z,99706.40
2019-05-03T15:31:37.477Z,99697.30
2019-05-03T15:34:23.596Z,99704.63
2019-05-03T15:37:09.852Z,99698.24
2019-05-03T15:39:56.131Z,99694.86
2019-05-03T15:42:48.066Z,99696.86
2019-05-03T15:45:54.622Z,99698.67
2019-05-03T15:48:45.786Z,99697.73
2019-05-03T15:51:32.121Z,99707.53
2019-05-03T15:54:18.321Z,99700.73
2019-05-03T15:57:05.087Z,99700.42
2019-05-03T15:59:51.406Z,99705.42
2019-05-03T16:02:37.496Z,99704.73
2019-05-03T16:05:25.068Z,99707.56
2019-05-03T16:08:11.751Z,99713.00
2019-05-03T16:10:57.925Z,99709.21
2019-05-03T16:13:44.861Z,99706.48
2019-05-03T16:16:31.101Z,99711.94
2019-05-03T16:19:17.211Z,99700.61
2019-05-03T16:22:04.872Z,99697.52
2019-05-03T16:24:51.051Z,99689.06
2019-05-03T16:27:56.796Z,99686.83
2019-05-03T16:30:48.372Z,99686.13
2019-05-03T16:33:35.020Z,99682.54
2019-05-03T16:36:20.951Z,99666.73
2019-05-03T16:39:07.686Z,99667.02
2019-05-03T16:41:55.304Z,99674.11
2019-05-03T16:44:41.266Z,99670.39
2019-05-03T16:47:27.556Z,99670.39
2019-05-03T16:50:14.437Z,99670.98
2019-05-03T16:53:00.895Z,99672.00
2019-05-03T16:55:47.026Z,99677.65
2019-05-03T16:58:35.214Z,99669.45
2019-05-03T17:01:21.281Z,99668.98
2019-05-03T17:04:42.151Z,99672.72
2019-05-03T17:07:35.375Z,99670.60
2019-05-03T17:10:34.891Z,99669.20
2019-05-03T17:13:21.157Z,99658.89
2019-05-03T17:16:09.854Z,99673.61
2019-05-03T17:18:59.292Z,99669.15
2019-05-03T17:21:45.701Z,99676.91
2019-05-03T17:24:31.856Z,99677.77
2019-05-03T17:27:19.249Z,99673.19
2019-05-03T17:30:15.869Z,99685.35
2019-05-03T17:33:04.613Z,99683.70
2019-05-03T17:35:51.061Z,99685.98
2019-05-03T17:38:37.201Z,99683.08
2019-05-03T17:41:41.816Z,99687.27
2019-05-03T17:44:37.180Z,99683.61
2019-05-03T17:47:23.201Z,99688.77
2019-05-03T17:50:09.626Z,99688.97
2019-05-03T17:53:11.526Z,99692.31
2019-05-03T17:56:17.713Z,99687.77
2019-05-03T17:59:10.591Z,99684.16
2019-05-03T18:02:32.187Z,99690.44
2019-05-03T18:05:50.949Z,99693.86
2019-05-03T18:09:10.720Z,99686.92
2019-05-03T18:11:58.136Z,99694.22
2019-05-03T18:14:45.056Z,99698.95
2019-05-03T18:17:32.816Z,99697.23
2019-05-03T18:20:18.847Z,99690.13
2019-05-03T18:23:05.186Z,99693.24
2019-05-03T18:25:51.136Z,99691.23
2019-05-03T18:28:39.641Z,99692.59
2019-05-03T18:31:25.918Z,99690.58
2019-05-03T18:34:18.967Z,99695.38
2019-05-03T18:37:00.461Z,99694.14
2019-05-03T18:39:49.951Z,99698.20
2019-05-03T18:42:44.811Z,99703.74
2019-05-03T18:45:59.866Z,99706.16
2019-05-03T18:48:46.170Z,99706.16
2019-05-03T18:51:34.257Z,99713.83
2019-05-03T18:54:20.486Z,99715.56
2019-05-03T18:57:06.847Z,99719.76
2019-05-03T18:59:55.462Z,99718.30
2019-05-03T19:02:41.859Z,99714.17
2019-05-03T19:05:30.504Z,99720.25
2019-05-03T19:08:42.016Z,99711.06
2019-05-03T19:11:54.915Z,99716.44
2019-05-03T19:14:41.545Z,99717.28
2019-05-03T19:17:35.562Z,99715.34
2019-05-03T19:20:22.211Z,99709.17
2019-05-03T19:23:08.361Z,99704.71
2019-05-03T19:25:55.255Z,99711.52
2019-05-03T19:28:42.002Z,99718.14
2019-05-03T19:31:28.287Z,99709.88
2019-05-03T19:34:15.456Z,99716.95
2019-05-03T19:37:01.681Z,99714.75
2019-05-03T19:39:47.931Z,99718.11
2019-05-03T19:42:35.387Z,99713.34
2019-05-03T19:45:21.881Z,99709.34
2019-05-03T19:48:09.691Z,99708.09
2019-05-03T19:50:56.212Z,99702.24
2019-05-03T19:53:49.691Z,99702.90
2019-05-03T19:56:35.670Z,99701.98
2019-05-03T19:59:41.602Z,99698.43
2019-05-03T20:02:54.452Z,99697.73
2019-05-03T20:06:00.681Z,99702.97
2019-05-03T20:08:52.256Z,99701.61
2019-05-03T20:11:38.436Z,99705.14
2019-05-03T20:14:26.877Z,99701.28
2019-05-03T20:17:16.201Z,99702.56
2019-05-03T20:20:04.787Z,99706.89
2019-05-03T20:22:54.970Z,99698.09
2019-05-03T20:25:41.263Z,99703.78
2019-05-03T20:28:27.147Z,99703.71
2019-05-03T20:31:18.221Z,99703.95
2019-05-03T20:34:09.366Z,99705.36
2019-05-03T20:40:26.826Z,99698.47
2019-05-03T20:43:35.207Z,99698.09
2019-05-03T20:46:31.958Z,99701.86
2019-05-03T20:49:18.451Z,99697.15
2019-05-03T20:52:05.642Z,99695.95
2019-05-03T20:54:55.087Z,99693.20
2019-05-03T20:57:41.716Z,99701.06
2019-05-03T21:00:27.971Z,99701.67
2019-05-03T21:03:15.280Z,99708.60
2019-05-03T21:06:02.466Z,99714.33
2019-05-03T21:08:56.706Z,99708.00
2019-05-03T21:11:48.501Z,99709.31
2019-05-03T21:14:35.166Z,99700.37
2019-05-03T21:17:34.565Z,99711.33
2019-05-03T21:20:39.422Z,99699.61
2019-05-03T21:23:26.627Z,99705.34
2019-05-03T21:26:16.677Z,99693.66
2019-05-03T21:29:04.721Z,99702.45
2019-05-03T21:31:55.128Z,99700.73
2019-05-03T21:34:40.972Z,99699.30
2019-05-03T21:37:27.417Z,99693.27
2019-05-03T21:40:15.488Z,99699.85
2019-05-03T21:43:01.792Z,99696.63
2019-05-03T21:45:54.398Z,99688.03
2019-05-03T21:48:50.466Z,99690.78
2019-05-03T21:51:36.788Z,99698.50
2019-05-03T21:54:28.356Z,99687.11
2019-05-03T21:57:16.628Z,99687.16
2019-05-03T22:00:05.498Z,99679.69
2019-05-03T22:02:51.905Z,99682.42
2019-05-03T22:05:51.789Z,99686.00
2019-05-03T22:08:26.356Z,99682.95
2019-05-03T22:11:12.296Z,99689.72
2019-05-03T22:14:01.690Z,99697.72
2019-05-03T22:17:07.326Z,99686.03
2019-05-03T22:20:00.251Z,99683.66
2019-05-03T22:22:55.419Z,99687.02
2019-05-03T22:25:42.420Z,99688.34
2019-05-03T22:28:28.836Z,99691.08
2019-05-03T22:31:15.359Z,99686.43
2019-05-03T22:34:01.410Z,99687.87
2019-05-03T22:36:47.563Z,99684.42
2019-05-03T22:39:35.776Z,99679.77
2019-05-03T22:42:25.343Z,99686.30
2019-05-03T22:45:13.311Z,99678.81
2019-05-03T22:47:59.831Z,99669.31
2019-05-03T22:50:46.030Z,99670.16
2019-05-03T22:57:46.271Z,99667.05
2019-05-03T23:13:20.970Z,99668.25
2019-05-03T23:25:26.876Z,99650.83
2019-05-03T23:28:24.941Z,99654.14
2019-05-03T23:31:14.747Z,99643.45
2019-05-03T23:34:08.074Z,99638.37
2019-05-03T23:36:58.506Z,99642.39
2019-05-03T23:39:50.963Z,99644.75
2019-05-03T23:42:46.936Z,99636.20
2019-05-03T23:45:34.773Z,99638.57
2019-05-03T23:48:25.610Z,99638.81
2019-05-03T23:51:30.896Z,99636.67
2019-05-03T23:54:26.735Z,99639.19
2019-05-03T23:57:14.436Z,99640.73
